Strona główna
METAR-TAF:

METAR-TAF

Lotnisko :

Yap, Mikronezja

Port lotniczy Yap

Szerokość geograficzna: 09-29N, Długość geograficzna: 138-05E, wysokość: 28 m

Aktualna obserwacja pogody

Raport powstał 13 minut temu, godzina 18:54 UTC
Wiatr 4 kt z kierunków zmiennych
Temperatura 27°C
Wilgotność 89%
Ciśnienie 1009 hPa
Widzialność: 19.3 km
Rozproszone chmury na wysokości 1600 ft
Przerywane chmury na wysokości 30000 ft

METAR: PTYA 261854Z VRB04KT 12SM SCT016 BKN300 27/25 A2980 RMK SLP091 T02710247

czas: 05:07 (19:07 UTC)

Prognoza

Raport powstał 1 godzina i 37 minut temu, godzina 17:30 UTC
Prognoza ważna od 26 godzina 18 UTC do 27 godzina 18 UTC
Wiatr 5 kt z kierunków zmiennych
Widzialność: 10 km
Mało chmury na wysokości 1600 ft

TAF: PTYA 261730Z 2618/2718 VRB05KT P6SM FEW016

Obserwacja i prognoza pogody dla ponad 4000 lotnisk (raport METAR i TAF).

Dostępne stacje oznaczono żółtymi i czerwonymi punktami na mapie.

Najedź kursorem aby zobaczyć nazwę stacji.

Kliknij aby zobaczyć obserwacje i prognozy pogody.

Aby zmienić mapę: kliknij na zielony przycisk z czarnym krzyżykiem, aby powiększyć; na zielony przycisk z myślnikiem, aby pomniejszyć; na zielone strzałki, aby przejść do map sąsiednich.


METAR-TAF: